Latest Weather Observations for Moruya Airport

IDN60801

Issued at 10:02 am EDT Wednesday 29 March 2017 (issued every 30 minutes, with the page automatically refreshed every 10 minutes)

About weather observations | Map of weather stations | Latest weather observations for NSW | Other Formats
Station Details ID: 069148 Name: MORUYA AIRPORT AWS Lat: -35.90 Lon: 150.14 Height: 4.0 m
Data from the previous 72 hours. | See also: Recent months at Moruya Airport
Date/Time
EDT
Temp
°C
App
Temp
°C
Dew
Point
°C
Rel
Hum
%
Delta-T
°C
Wind Press
QNH
hPa
Press
MSL
hPa
Rain since
9am
mm
Dir  Spd
km/h
Gust
km/h
Spd
kts
Gust
kts
29/10:00am 20.3 22.0 17.1 82 2.0 SE 4 7 2 4 1010.5 1010.4 0.0
29/09:30am 19.3 21.4 16.3 83 1.8 CALM 0 0 0 0 1010.7 1010.6 0.0
29/09:00am 17.9 19.9 15.9 88 1.2 CALM 0 0 0 0 1010.7 1010.6 0.2
29/08:30am 16.1 17.7 14.8 92 0.7 CALM 0 0 0 0 1010.8 1010.7 0.2
29/08:21am 16.2 17.9 15.2 94 0.6 CALM 0 0 0 0 1010.9 1010.8 0.2
29/08:00am 14.7 15.9 13.9 95 0.4 CALM 0 0 0 0 1010.8 1010.7 0.2
29/07:30am 13.1 13.4 12.3 95 0.4 WNW 2 7 1 4 1010.7 1010.6 0.2
29/07:00am 13.5 14.3 12.7 95 0.4 CALM 0 0 0 0 1010.6 1010.5 0.2
29/06:30am 13.3 12.9 12.5 95 0.4 NW 6 7 3 4 1010.6 1010.5 0.2
29/06:00am 13.8 14.7 13.0 95 0.4 CALM 0 0 0 0 1010.7 1010.6 0.2
29/05:34am 14.2 15.3 13.4 95 0.4 CALM 0 0 0 0 1010.8 1010.7 0.2
29/05:32am 14.2 15.3 13.4 95 0.4 CALM 0 0 0 0 1010.8 1010.7 0.2
29/05:30am 14.3 15.4 13.5 95 0.4 CALM 0 0 0 0 1010.7 1010.6 0.2
29/05:00am 14.5 15.7 13.7 95 0.4 CALM 0 0 0 0 1010.7 1010.6 0.2
29/04:30am 14.6 15.7 13.6 94 0.6 CALM 0 0 0 0 1010.8 1010.7 0.2
29/04:19am 14.7 15.9 13.7 94 0.6 CALM 0 0 0 0 1010.9 1010.8 0.2
29/04:00am 15.0 16.3 14.2 95 0.5 CALM 0 0 0 0 1010.8 1010.7 0.2
29/03:38am 14.9 16.2 14.1 95 0.5 CALM 0 0 0 0 1011.1 1011.0 0.2
29/03:30am 14.9 16.1 13.9 94 0.6 CALM 0 0 0 0 1011.1 1011.0 0.2
29/03:10am 14.8 16.0 13.7 93 0.6 CALM 0 0 0 0 1011.3 1011.2 0.2
29/03:00am 14.7 15.9 13.7 94 0.6 CALM 0 0 0 0 1011.5 1011.4 0.2
29/02:33am 15.3 16.7 14.3 94 0.6 CALM 0 0 0 0 1011.7 1011.6 0.2
29/02:30am 14.9 16.1 13.8 93 0.6 CALM 0 0 0 0 1011.8 1011.7 0.2
29/02:04am 15.5 16.5 14.4 93 0.6 SW 2 6 1 3 1012.1 1012.0 0.2
29/02:00am 16.0 17.2 14.9 93 0.6 SW 2 6 1 3 1012.2 1012.1 0.2
29/01:30am 15.9 17.5 14.8 93 0.6 CALM 0 0 0 0 1012.5 1012.4 0.2
29/01:00am 16.0 17.4 14.5 91 0.9 CALM 0 0 0 0 1012.8 1012.7 0.2
29/12:30am 17.1 18.8 15.3 89 1.0 CALM 0 0 0 0 1013.1 1013.0 0.2
29/12:00am 18.2 20.1 15.8 86 1.4 CALM 0 0 0 0 1013.4 1013.3 0.2
 
Date/Time
EDT
Temp
°C
App
Temp
°C
Dew
Point
°C
Rel
Hum
%
Delta-T
°C
Wind Press
QNH
hPa
Press
MSL
hPa
Rain since
9am
mm
Dir  Spd
km/h
Gust
km/h
Spd
kts
Gust
kts
28/11:30pm 18.6 19.7 15.7 83 1.7 W 4 7 2 4 1013.6 1013.5 0.2
28/11:00pm 18.5 19.2 15.6 83 1.7 WNW 6 9 3 5 1013.7 1013.6 0.2
28/10:30pm 18.6 19.3 15.5 82 1.8 WNW 6 9 3 5 1013.8 1013.7 0.2
28/10:00pm 19.4 21.3 15.7 79 2.2 CALM 0 2 0 1 1014.0 1013.9 0.2
28/09:30pm 19.8 20.6 15.9 78 2.3 N 6 9 3 5 1014.0 1013.9 0.2
28/09:00pm 19.6 20.5 16.1 80 2.1 NNW 6 7 3 4 1013.7 1013.6 0.2
28/08:30pm 19.6 20.3 16.1 80 2.1 NW 7 7 4 4 1013.5 1013.4 0.2
28/08:00pm 19.6 20.4 15.9 79 2.2 NW 6 9 3 5 1013.5 1013.4 0.2
28/07:30pm 19.9 21.6 15.3 75 2.7 CALM 0 0 0 0 1013.4 1013.3 0.2
28/07:00pm 20.9 21.2 14.5 67 3.7 ENE 6 9 3 5 1013.4 1013.3 0.2
28/06:30pm 20.9 21.1 14.8 68 3.6 E 7 9 4 5 1013.1 1013.0 0.2
28/06:00pm 21.0 20.6 14.2 65 4.0 E 9 11 5 6 1013.0 1012.9 0.2
28/05:30pm 21.2 20.6 13.4 61 4.5 E 9 13 5 7 1012.9 1012.8 0.2
28/05:00pm 21.4 20.6 14.1 63 4.2 E 11 13 6 7 1012.7 1012.6 0.2
28/04:30pm 21.6 20.9 14.3 63 4.3 E 11 13 6 7 1012.7 1012.6 0.2
28/04:00pm 21.4 20.3 13.1 59 4.7 E 11 15 6 8 1012.9 1012.8 0.2
28/03:30pm 22.0 20.8 13.9 60 4.7 ESE 13 17 7 9 1012.9 1012.8 0.2
28/03:00pm 22.4 20.9 13.2 56 5.3 E 13 15 7 8 1013.2 1013.1 0.2
28/02:30pm 22.2 20.7 13.0 56 5.3 ESE 13 17 7 9 1013.4 1013.3 0.2
28/02:00pm 22.2 21.3 13.8 59 4.9 E 11 15 6 8 1013.6 1013.5 0.2
28/01:30pm 21.7 20.6 13.1 58 4.9 E 11 13 6 7 1014.0 1013.9 0.2
28/01:00pm 22.1 21.6 13.7 59 4.9 ENE 9 13 5 7 1014.3 1014.2 0.0
28/12:30pm 21.5 20.9 13.4 60 4.7 E 9 11 5 6 1014.8 1014.7 0.0
28/12:00pm 21.7 21.2 13.9 61 4.5 ENE 9 15 5 8 1014.9 1014.8 0.0
28/11:30am 21.6 21.7 13.8 61 4.5 ESE 6 9 3 5 1015.0 1014.9 0.0
28/11:00am 21.2 21.5 14.6 66 3.9 SW 6 11 3 6 1015.2 1015.1 0.0
28/10:30am 20.1 20.5 14.7 71 3.2 WNW 6 7 3 4 1015.3 1015.2 0.0
28/10:00am 19.5 20.1 15.2 76 2.5 WNW 6 9 3 5 1015.1 1015.0 0.0
28/09:30am 18.7 18.8 15.4 81 1.9 W 9 11 5 6 1015.1 1015.0 0.0
28/09:00am 18.1 18.7 15.7 86 1.4 WNW 7 9 4 5 1014.7 1014.6 4.0
28/08:30am 17.6 19.5 15.8 89 1.1 CALM 0 7 0 4 1014.6 1014.5 4.0
28/08:00am 17.3 18.0 15.6 90 1.0 W 6 9 3 5 1014.5 1014.4 4.0
28/07:30am 17.1 18.9 15.4 90 1.0 CALM 0 6 0 3 1014.1 1014.0 4.0
28/07:00am 17.0 17.4 15.3 90 1.0 WSW 7 11 4 6 1013.9 1013.8 4.0
28/06:30am 16.9 17.3 15.2 90 1.0 W 7 15 4 8 1013.6 1013.5 4.0
28/06:00am 16.8 17.4 15.2 90 0.9 WNW 6 9 3 5 1013.5 1013.4 4.0
28/05:30am 16.9 16.7 14.7 87 1.3 WSW 9 11 5 6 1013.4 1013.3 4.0
28/05:00am 16.7 17.0 15.1 90 0.9 WSW 7 9 4 5 1013.4 1013.3 4.0
28/04:30am 16.7 17.1 15.2 91 0.9 W 7 9 4 5 1013.3 1013.2 4.0
28/04:00am 16.9 16.1 15.1 89 1.0 S 13 20 7 11 1013.6 1013.5 4.0
28/03:30am 17.8 16.5 14.9 83 1.7 S 15 20 8 11 1013.3 1013.2 4.0
28/03:00am 18.1 18.0 16.1 88 1.2 SSW 11 19 6 10 1013.4 1013.3 4.0
28/02:30am 18.1 18.9 16.3 89 1.1 WSW 7 11 4 6 1013.2 1013.1 4.0
28/02:00am 18.4 18.9 16.6 89 1.1 SSW 9 13 5 7 1013.1 1013.0 4.0
28/01:30am 18.4 19.3 16.7 90 1.0 SW 7 11 4 6 1013.0 1012.9 4.0
28/01:00am 18.5 19.4 16.5 88 1.2 SSW 7 13 4 7 1013.0 1012.9 4.0
28/12:32am 18.5 19.7 16.8 90 1.0 W 6 13 3 7 1012.5 1012.4 4.0
28/12:30am 18.5 20.1 17.0 91 0.9 W 4 9 2 5 1012.5 1012.4 4.0
28/12:00am 18.5 19.5 16.8 90 1.0 NW 7 11 4 6 1012.5 1012.4 4.0
 
Date/Time
EDT
Temp
°C
App
Temp
°C
Dew
Point
°C
Rel
Hum
%
Delta-T
°C
Wind Press
QNH
hPa
Press
MSL
hPa
Rain since
9am
mm
Dir  Spd
km/h
Gust
km/h
Spd
kts
Gust
kts
27/11:55pm 18.6 19.8 16.9 90 1.0 WNW 6 9 3 5 1012.2 1012.1 4.0
27/11:30pm 18.6 18.9 17.1 91 0.9 SW 11 17 6 9 1012.2 1012.1 4.0
27/11:29pm 18.6 18.9 17.1 91 0.9 SW 11 17 6 9 1012.2 1012.1 4.0
27/11:00pm 18.5 18.9 17.2 92 0.8 SW 11 15 6 8 1012.6 1012.5 4.0
27/10:52pm 18.4 19.5 17.1 92 0.8 WSW 7 11 4 6 1012.3 1012.2 4.0
27/10:30pm 18.7 17.6 17.2 91 0.9 SSW 19 35 10 19 1012.0 1011.9 4.0
27/10:01pm 19.3 18.1 17.1 87 1.3 S 19 35 10 19 1012.2 1012.1 4.0
27/10:00pm 19.3 18.5 17.1 87 1.3 S 17 35 9 19 1012.3 1012.2 4.0
27/09:46pm 19.5 19.9 18.2 92 0.8 SSW 13 20 7 11 1012.5 1012.4 3.8
27/09:42pm 19.5 19.9 18.2 92 0.8 SSW 13 20 7 11 1012.5 1012.4 3.6
27/09:35pm 19.2 18.8 18.0 93 0.7 S 17 28 9 15 1012.2 1012.1 3.4
27/09:30pm 19.3 17.9 18.0 92 0.8 S 22 30 12 16 1012.0 1011.9 3.4
27/09:22pm 19.4 17.2 17.9 91 0.9 SSE 26 33 14 18 1011.6 1011.5 3.2
27/09:02pm 20.5 16.2 17.7 84 1.7 S 37 61 20 33 1011.7 1011.6 0.8
27/09:00pm 20.7 15.5 17.5 82 2.0 S 41 61 22 33 1011.4 1011.3 0.4
27/08:50pm 22.1 16.8 17.2 74 3.0 S 41 69 22 37 1010.4 1010.3 0.0
27/08:49pm 22.3 17.2 16.8 71 3.4 S 39 69 21 37 1010.3 1010.2 0.0
27/08:43pm 23.7 22.4 20.6 83 2.0 SSW 28 46 15 25 1010.1 1010.0 0.0
27/08:37pm 23.3 23.7 20.6 85 1.8 SSE 19 41 10 22 1009.9 1009.8 0.0
27/08:30pm 22.9 25.3 20.8 88 1.4 ESE 9 13 5 7 1009.0 1008.9 0.0
27/08:06pm 22.8 25.6 20.5 87 1.5 NE 6 7 3 4 1007.9 1007.8 0.0
27/08:00pm 22.8 25.5 20.3 86 1.6 NE 6 11 3 6 1007.1 1007.0 0.0
27/07:42pm 22.8 24.6 20.3 86 1.6 NNE 11 15 6 8 1005.9 1005.8 0.0
27/07:30pm 23.0 24.0 20.3 85 1.7 NNE 15 20 8 11 1005.6 1005.5 0.0
27/07:00pm 23.3 24.2 20.1 82 2.1 NNE 15 19 8 10 1005.5 1005.4 0.0
27/06:30pm 23.8 23.0 20.1 80 2.4 NNE 24 30 13 16 1005.1 1005.0 0.0
27/06:00pm 24.3 22.3 20.0 77 2.8 NNE 30 35 16 19 1005.0 1004.9 0.0
27/05:30pm 25.2 23.7 20.2 74 3.3 NNE 28 33 15 18 1005.4 1005.3 0.0
27/05:00pm 25.7 23.1 19.8 70 3.8 NNE 33 41 18 22 1006.0 1005.9 0.0
27/04:30pm 26.1 23.5 20.0 69 4.0 NNE 33 43 18 23 1006.2 1006.1 0.0
27/04:00pm 26.3 24.2 19.7 67 4.3 NNE 30 39 16 21 1006.6 1006.5 0.0
27/03:30pm 26.6 24.2 20.0 67 4.3 NNE 32 37 17 20 1007.2 1007.1 0.0
27/03:00pm 24.8 22.8 19.2 71 3.6 NE 28 35 15 19 1007.6 1007.5 0.0
27/02:30pm 25.8 23.8 19.2 67 4.2 NE 28 35 15 19 1007.9 1007.8 0.0
27/02:00pm 26.6 25.4 20.0 67 4.3 NE 26 35 14 19 1008.6 1008.5 0.0
27/01:30pm 25.5 23.3 19.6 70 3.8 NE 30 39 16 21 1009.1 1009.0 0.0
27/01:00pm 25.4 23.7 19.8 71 3.6 NE 28 37 15 20 1010.0 1009.9 0.0
27/12:30pm 25.3 23.7 19.2 69 3.9 NE 26 33 14 18 1010.7 1010.6 0.0
27/12:00pm 25.6 24.6 18.8 66 4.3 NE 22 30 12 16 1011.3 1011.2 0.0
27/11:30am 25.7 24.7 18.9 66 4.3 NE 22 28 12 15 1011.8 1011.7 0.0
27/11:00am 26.1 26.2 17.5 59 5.4 NNE 13 17 7 9 1012.4 1012.3 0.0
27/10:30am 24.3 24.4 17.5 66 4.2 N 13 17 7 9 1013.1 1013.0 0.0
27/10:00am 23.1 23.1 17.3 70 3.6 N 13 20 7 11 1013.5 1013.4 0.0
27/09:30am 22.0 22.4 17.2 74 2.9 N 11 17 6 9 1014.0 1013.9 0.0
27/09:00am 19.9 20.5 16.9 83 1.8 NNW 9 13 5 7 1014.1 1014.0 0.0
27/08:30am 19.0 19.6 16.8 87 1.3 N 9 13 5 7 1014.0 1013.9 0.0
27/08:00am 16.5 17.1 15.7 95 0.5 NW 7 11 4 6 1014.2 1014.1 0.0
27/07:37am 15.7 15.3 15.1 96 0.3 N 11 13 6 7 1013.8 1013.7 0.0
27/07:30am 15.3 14.7 14.7 96 0.3 N 11 13 6 7 1013.8 1013.7 0.0
27/07:00am 14.9 16.3 14.3 96 0.3 CALM 0 0 0 0 1014.1 1014.0 0.0
27/06:30am 14.7 16.0 14.1 96 0.3 CALM 0 0 0 0 1013.8 1013.7 0.0
27/06:00am 15.0 16.4 14.4 96 0.3 CALM 0 0 0 0 1013.6 1013.5 0.0
27/05:30am 14.7 16.0 14.1 96 0.3 CALM 0 0 0 0 1013.6 1013.5 0.0
27/05:00am 14.6 15.8 13.8 95 0.4 CALM 0 0 0 0 1013.7 1013.6 0.0
27/04:30am 15.5 17.1 14.9 96 0.3 CALM 0 0 0 0 1013.8 1013.7 0.0
27/04:00am 15.6 17.2 15.0 96 0.3 CALM 0 0 0 0 1014.2 1014.1 0.0
27/03:30am 15.7 17.4 15.1 96 0.3 CALM 0 0 0 0 1014.6 1014.5 0.0
27/03:00am 15.5 17.0 14.7 95 0.5 CALM 0 0 0 0 1014.6 1014.5 0.0
27/02:30am 15.6 17.2 14.8 95 0.5 CALM 0 0 0 0 1014.8 1014.7 0.0
27/02:00am 16.2 18.0 15.4 95 0.5 CALM 0 0 0 0 1015.4 1015.3 0.0
27/01:30am 16.7 18.7 15.9 95 0.5 CALM 0 0 0 0 1015.6 1015.5 0.0
27/01:00am 16.9 18.9 16.1 95 0.5 CALM 0 0 0 0 1015.9 1015.8 0.0
27/12:30am 16.9 18.9 15.9 94 0.6 CALM 0 0 0 0 1016.1 1016.0 0.0
27/12:00am 17.9 20.3 17.1 95 0.5 CALM 0 0 0 0 1016.3 1016.2 0.0
 
Date/Time
EDT
Temp
°C
App
Temp
°C
Dew
Point
°C
Rel
Hum
%
Delta-T
°C
Wind Press
QNH
hPa
Press
MSL
hPa
Rain since
9am
mm
Dir  Spd
km/h
Gust
km/h
Spd
kts
Gust
kts
26/11:55pm 17.7 19.7 16.9 95 0.5 WNW 2 9 1 5 1016.4 1016.3 0.0
26/11:52pm 17.6 18.8 16.8 95 0.5 WNW 6 11 3 6 1016.4 1016.3 0.0
26/11:30pm 17.7 19.7 16.9 95 0.5 NW 2 7 1 4 1016.5 1016.4 0.0
26/11:00pm 18.0 20.4 17.0 94 0.6 CALM 0 0 0 0 1016.6 1016.5 0.0
26/10:30pm 18.4 20.9 17.2 93 0.7 CALM 0 0 0 0 1016.6 1016.5 0.0
26/10:12pm 18.9 21.7 17.9 94 0.6 CALM 0 0 0 0 1016.5 1016.4 0.0
26/10:00pm 19.1 21.6 18.1 94 0.6 WNW 2 6 1 3 1016.5 1016.4 0.0
26/09:43pm 19.0 20.5 18.0 94 0.6 W 7 9 4 5 1016.4 1016.3 0.0
26/09:30pm 18.7 21.3 17.5 93 0.7 CALM 0 6 0 3 1016.3 1016.2 0.0
26/09:00pm 19.4 22.3 18.2 93 0.7 CALM 0 0 0 0 1016.0 1015.9 0.0
26/08:30pm 19.7 22.6 18.2 91 0.9 CALM 0 0 0 0 1015.8 1015.7 0.0
26/08:16pm 20.4 23.5 18.7 90 1.1 CALM 0 0 0 0 1015.7 1015.6 0.0
26/08:05pm 20.8 23.6 18.9 89 1.2 NE 2 9 1 5 1015.6 1015.5 0.0
26/08:00pm 20.9 23.0 19.0 89 1.2 NE 6 11 3 6 1015.5 1015.4 0.0
26/07:39pm 21.8 24.2 19.7 88 1.3 NE 6 7 3 4 1015.0 1014.9 0.0
26/07:30pm 22.0 24.3 19.9 88 1.3 NE 7 9 4 5 1015.0 1014.9 0.0
26/07:25pm 22.0 24.3 19.9 88 1.3 NE 7 9 4 5 1015.0 1014.9 0.0
26/07:05pm 22.1 24.1 20.0 88 1.3 ENE 9 11 5 6 1014.8 1014.7 0.0
26/07:00pm 22.2 24.2 19.9 87 1.5 ENE 9 13 5 7 1014.7 1014.6 0.0
26/06:30pm 23.0 24.2 19.8 82 2.1 ENE 13 15 7 8 1014.5 1014.4 0.0
26/06:00pm 23.6 24.9 19.3 77 2.7 NE 11 15 6 8 1014.2 1014.1 0.0
26/05:30pm 23.3 24.2 19.2 78 2.6 NE 13 19 7 10 1014.0 1013.9 0.0
26/05:00pm 23.5 24.1 19.4 78 2.6 NE 15 20 8 11 1014.0 1013.9 0.0
26/04:30pm 24.0 24.3 19.7 77 2.8 NE 17 20 9 11 1014.0 1013.9 0.0
26/04:00pm 24.5 25.2 20.4 78 2.7 NE 17 20 9 11 1014.0 1013.9 0.0
26/03:30pm 24.2 24.0 19.3 74 3.1 NE 19 22 10 12 1014.2 1014.1 0.0
26/03:00pm 23.6 23.1 18.7 74 3.1 ENE 19 22 10 12 1014.4 1014.3 0.0
26/02:30pm 24.3 24.9 19.4 74 3.1 ENE 15 19 8 10 1014.6 1014.5 0.0
26/02:00pm 24.1 24.5 19.0 73 3.2 ENE 15 17 8 9 1014.7 1014.6 0.0
26/01:30pm 23.7 24.3 18.6 73 3.2 ENE 13 15 7 8 1015.2 1015.1 0.0
26/01:00pm 23.9 24.3 18.1 70 3.6 ENE 13 15 7 8 1015.3 1015.2 0.0
26/12:30pm 23.4 24.0 18.7 75 3.0 E 13 15 7 8 1015.5 1015.4 0.0
26/12:00pm 23.0 23.7 17.9 73 3.2 ENE 11 13 6 7 1015.7 1015.6 0.0
26/11:30am 22.7 23.3 17.6 73 3.2 ENE 11 13 6 7 1015.7 1015.6 0.0
26/11:00am 23.0 23.8 18.1 74 3.1 ENE 11 15 6 8 1015.7 1015.6 0.0
26/10:30am 22.8 24.2 17.7 73 3.2 ENE 7 9 4 5 1015.6 1015.5 0.0

Other Formats:

Comma delimited format used in spreadsheet applications
http://www.bom.gov.au/fwo/IDN60801/IDN60801.95937.axf

JavaScript Object Notation format (JSON) in row-major order
http://www.bom.gov.au/fwo/IDN60801/IDN60801.95937.json